Ria Da Coruna — EAGB — position and weather

sailwx.info

Track history (hours):
 
Tides and Currents Weather Stations Pressure Air Temp Water Temp Dewpoint Dewpoint Depression Visibility Wind Speed Wind Dir Waves Ship Positions

Ria Da Coruna

Last reported at 2016-Aug-26 03:04 UTC. Time now 2016-Aug-26 13:45 UTC.
Position N 44°19' W 001°34'.

Length 28 m.

Type: Fishing. MMSI: 224068650.

Date/timePositionNaut miles runAvg speedWind from/ knotsBaromVisibWave heightAir tempDewpointWater temp
2016-Aug-26 03:04N 44°19' W 001°34'1 1.3
2016-Aug-26 02:30N 44°20' W 001°35'1 0.8
2016-Aug-26 01:32N 44°21' W 001°35'68 6.0
2016-Aug-25 14:18N 43°18' W 002°12'0 0.0
2016-Aug-25 13:31N 43°18' W 002°12'0 0.1
2016-Aug-25 12:33N 43°18' W 002°12'0 0.3
2016-Aug-25 11:04N 43°18' W 002°11'811.3
2016-Aug-25 10:19N 43°26' W 002°07'1211.1
2016-Aug-25 09:13N 43°37' W 001°59'42 9.0
2016-Aug-25 04:33N 44°15' W 001°35'2 1.7
2016-Aug-25 03:18N 44°13' W 001°35'0 0.2
2016-Aug-25 02:33N 44°13' W 001°35'1 1.4
2016-Aug-25 01:33N 44°11' W 001°34'60 3.9
2016-Aug-24 10:06N 43°18' W 002°12'0 0.1
2016-Aug-24 09:29N 43°18' W 002°12'18 5.7
2016-Aug-24 06:20N 43°34' W 001°60'2211.4
2016-Aug-24 04:23N 43°53' W 001°44'911.3
2016-Aug-24 03:33N 44°01' W 001°38'2 2.2
2016-Aug-24 02:32N 44°03' W 001°37'0 0.3
2016-Aug-24 01:33N 44°04' W 001°37'3 2.7
2016-Aug-24 00:26N 44°06' W 001°39'2 2.5
2016-Aug-23 23:30N 44°05' W 001°37'2 2.1
2016-Aug-23 22:33N 44°03' W 001°35'3 3.3
2016-Aug-23 21:33N 44°05' W 001°39'9 9.3
2016-Aug-23 20:33N 43°56' W 001°36'9 9.2
2016-Aug-23 19:33N 43°47' W 001°40'6 6.2
2016-Aug-23 18:33N 43°43' W 001°46'9 9.1
2016-Aug-23 17:33N 43°35' W 001°54'9 9.1
2016-Aug-23 16:32N 43°27' W 002°00'6 0.6
2016-Aug-23 07:31N 43°24' W 002°06'1111.3
2016-Aug-23 06:33N 43°33' W 001°59'1111.0
2016-Aug-23 05:33N 43°43' W 001°51'1310.9
2016-Aug-23 04:23N 43°54' W 001°42'910.6
2016-Aug-23 03:32N 44°01' W 001°35'  
2016-Aug-19 10:24N 43°18' W 002°12'0 0.1
2016-Aug-19 09:32N 43°18' W 002°12'0 0.0
2016-Aug-19 08:33N 43°18' W 002°12'11 9.4
2016-Aug-19 07:25N 43°27' W 002°03'910.9
2016-Aug-19 06:33N 43°35' W 001°56'15 4.6
2016-Aug-19 03:11N 43°46' W 001°42'  
2016-Aug-16 10:28N 43°18' W 002°12'0 0.1
2016-Aug-16 09:33N 43°18' W 002°12'0 0.0
2016-Aug-16 08:33N 43°18' W 002°12'0 0.3
2016-Aug-16 07:33N 43°18' W 002°12'3712.1
2016-Aug-16 04:32N 43°47' W 001°40'  
Track history (hours):
 
Tides and Currents Weather Stations Pressure Air Temp Water Temp Dewpoint Dewpoint Depression Visibility Wind Speed Wind Dir Waves Ship Positions

Ria Da Coruna

Last reported at 2016-Aug-26 03:04 UTC. Time now 2016-Aug-26 13:45 UTC.
Position N 44°19' W 001°34'.

Length 28 m.

Type: Fishing. MMSI: 224068650.

Date/timePositionNaut miles runAvg speedWind from/ knotsBaromVisibWave heightAir tempDewpointWater temp
2016-Aug-26 03:04N 44°19' W 001°34'1 1.3
2016-Aug-26 02:30N 44°20' W 001°35'1 0.8
2016-Aug-26 01:32N 44°21' W 001°35'68 6.0
2016-Aug-25 14:18N 43°18' W 002°12'0 0.0
2016-Aug-25 13:31N 43°18' W 002°12'0 0.1
2016-Aug-25 12:33N 43°18' W 002°12'0 0.3
2016-Aug-25 11:04N 43°18' W 002°11'811.3
2016-Aug-25 10:19N 43°26' W 002°07'1211.1
2016-Aug-25 09:13N 43°37' W 001°59'42 9.0
2016-Aug-25 04:33N 44°15' W 001°35'2 1.7
2016-Aug-25 03:18N 44°13' W 001°35'0 0.2
2016-Aug-25 02:33N 44°13' W 001°35'1 1.4
2016-Aug-25 01:33N 44°11' W 001°34'60 3.9
2016-Aug-24 10:06N 43°18' W 002°12'0 0.1
2016-Aug-24 09:29N 43°18' W 002°12'18 5.7
2016-Aug-24 06:20N 43°34' W 001°60'2211.4
2016-Aug-24 04:23N 43°53' W 001°44'911.3
2016-Aug-24 03:33N 44°01' W 001°38'2 2.2
2016-Aug-24 02:32N 44°03' W 001°37'0 0.3
2016-Aug-24 01:33N 44°04' W 001°37'3 2.7
2016-Aug-24 00:26N 44°06' W 001°39'2 2.5
2016-Aug-23 23:30N 44°05' W 001°37'2 2.1
2016-Aug-23 22:33N 44°03' W 001°35'3 3.3
2016-Aug-23 21:33N 44°05' W 001°39'9 9.3
2016-Aug-23 20:33N 43°56' W 001°36'9 9.2
2016-Aug-23 19:33N 43°47' W 001°40'6 6.2
2016-Aug-23 18:33N 43°43' W 001°46'9 9.1
2016-Aug-23 17:33N 43°35' W 001°54'9 9.1
2016-Aug-23 16:32N 43°27' W 002°00'6 0.6
2016-Aug-23 07:31N 43°24' W 002°06'1111.3
2016-Aug-23 06:33N 43°33' W 001°59'1111.0
2016-Aug-23 05:33N 43°43' W 001°51'1310.9
2016-Aug-23 04:23N 43°54' W 001°42'910.6
2016-Aug-23 03:32N 44°01' W 001°35'  
2016-Aug-19 10:24N 43°18' W 002°12'0 0.1
2016-Aug-19 09:32N 43°18' W 002°12'0 0.0
2016-Aug-19 08:33N 43°18' W 002°12'11 9.4
2016-Aug-19 07:25N 43°27' W 002°03'910.9
2016-Aug-19 06:33N 43°35' W 001°56'15 4.6
2016-Aug-19 03:11N 43°46' W 001°42'  
2016-Aug-16 10:28N 43°18' W 002°12'0 0.1
2016-Aug-16 09:33N 43°18' W 002°12'0 0.0
2016-Aug-16 08:33N 43°18' W 002°12'0 0.3
2016-Aug-16 07:33N 43°18' W 002°12'3712.1
2016-Aug-16 04:32N 43°47' W 001°40'  

Dump ship's entire track history